Time;durP1;ratioP1;P1;durP2;ratioP2;P2;SDS_P1;SDS_P2;PMS_P1;PMS_P2;Temp;Humidity;BMP_temperature;BMP_pressure;BME280_temperature;BME280_humidity;BME280_pressure;Samples;Min_cycle;Max_cycle;Signal;HPM_P1;HPM_P2
2023/08/01 00:00:24;;;;;;;5.30;4.00;;;;;;;;;;5092445;28;20791;-60
2023/08/01 00:02:50;;;;;;;3.90;3.80;;;;;;;;;;5092479;28;20436;-60
2023/08/01 00:05:16;;;;;;;4.07;3.87;;;;;;;;;;5092263;28;20422;-60
2023/08/01 00:07:42;;;;;;;4.90;4.30;;;;;;;;;;5092705;28;20451;-60
2023/08/01 00:10:11;;;;;;;4.90;4.20;;;;;;;;;;5091243;28;20427;-60
2023/08/01 00:12:37;;;;;;;4.70;4.43;;;;;;;;;;5092411;28;20564;-60
2023/08/01 00:15:06;;;;;;;4.27;4.07;;;;;;;;;;5092162;28;20515;-60
2023/08/01 00:17:32;;;;;;;4.80;4.07;;;;;;;;;;5092218;28;20419;-60
2023/08/01 00:19:58;;;;;;;8.93;4.80;;;;;;;;;;5092350;28;20459;-60
2023/08/01 00:22:26;;;;;;;4.47;4.23;;;;;;;;;;5092442;28;20951;-60
2023/08/01 00:24:52;;;;;;;4.30;4.00;;;;;;;;;;5092143;28;20793;-60
2023/08/01 00:27:18;;;;;;;4.30;4.07;;;;;;;;;;5092079;28;20417;-60
2023/08/01 00:29:44;;;;;;;4.10;3.90;;;;;;;;;;5092262;28;20926;-60
2023/08/01 00:32:10;;;;;;;3.87;3.67;;;;;;;;;;5092042;28;20521;-60
2023/08/01 00:34:38;;;;;;;5.00;4.50;;;;;;;;;;5092117;28;20891;-60
2023/08/01 00:37:05;;;;;;;4.30;4.10;;;;;;;;;;5092220;28;20950;-60
2023/08/01 00:39:31;;;;;;;4.63;4.23;;;;;;;;;;5091950;28;20415;-60
2023/08/01 00:41:57;;;;;;;3.77;3.60;;;;;;;;;;5091861;28;20425;-60
2023/08/01 00:44:26;;;;;;;4.53;4.23;;;;;;;;;;5092047;28;20416;-60
2023/08/01 00:46:54;;;;;;;4.87;4.57;;;;;;;;;;5091701;28;20408;-60
2023/08/01 00:49:22;;;;;;;6.53;4.13;;;;;;;;;;5093237;28;20416;-60
2023/08/01 00:51:48;;;;;;;4.10;3.90;;;;;;;;;;5096067;28;20408;-61
2023/08/01 00:54:17;;;;;;;4.63;4.17;;;;;;;;;;5095826;28;20995;-61
2023/08/01 00:56:44;;;;;;;5.13;4.73;;;;;;;;;;5095880;28;20462;-61
2023/08/01 00:59:10;;;;;;;4.20;3.83;;;;;;;;;;5095600;28;21028;-60
2023/08/01 01:01:36;;;;;;;4.77;4.37;;;;;;;;;;5095746;28;20506;-60
2023/08/01 01:04:02;;;;;;;4.80;4.47;;;;;;;;;;5095747;28;20441;-60
2023/08/01 01:06:34;;;;;;;4.27;3.87;;;;;;;;;;5095649;28;20416;-60
2023/08/01 01:09:00;;;;;;;4.60;4.20;;;;;;;;;;5095516;28;20413;-60
2023/08/01 01:11:26;;;;;;;4.30;3.90;;;;;;;;;;5094282;28;20821;-60
2023/08/01 01:13:53;;;;;;;5.33;4.30;;;;;;;;;;5095522;28;20542;-60
2023/08/01 01:16:19;;;;;;;4.10;3.90;;;;;;;;;;5095480;28;20490;-60
2023/08/01 01:18:45;;;;;;;5.10;3.80;;;;;;;;;;5094301;28;20456;-60
2023/08/01 01:21:11;;;;;;;4.40;4.00;;;;;;;;;;5095197;28;20941;-60
2023/08/01 01:23:37;;;;;;;6.67;3.73;;;;;;;;;;5095600;28;20419;-60
2023/08/01 01:26:04;;;;;;;5.87;3.70;;;;;;;;;;5095203;28;20696;-60
2023/08/01 01:28:31;;;;;;;3.30;3.20;;;;;;;;;;5095228;28;20443;-60
2023/08/01 01:31:00;;;;;;;3.90;3.60;;;;;;;;;;5095497;28;20835;-60
2023/08/01 01:33:26;;;;;;;10.53;3.40;;;;;;;;;;5095125;28;20996;-60
2023/08/01 01:35:52;;;;;;;5.90;3.87;;;;;;;;;;5095408;28;20432;-60
2023/08/01 01:38:18;;;;;;;6.03;3.40;;;;;;;;;;5095121;28;20457;-60
2023/08/01 01:40:44;;;;;;;3.90;3.50;;;;;;;;;;5094900;28;20405;-60
2023/08/01 01:43:10;;;;;;;4.30;4.07;;;;;;;;;;5094973;28;20438;-60
2023/08/01 01:45:36;;;;;;;3.40;3.23;;;;;;;;;;5094989;28;20424;-60
2023/08/01 01:48:02;;;;;;;4.53;4.07;;;;;;;;;;5095135;28;20876;-60
2023/08/01 01:50:28;;;;;;;4.43;4.17;;;;;;;;;;5095094;28;20499;-60
2023/08/01 01:52:54;;;;;;;4.37;4.07;;;;;;;;;;5094554;28;20471;-60
2023/08/01 01:55:22;;;;;;;3.93;3.53;;;;;;;;;;5094634;28;20626;-60
2023/08/01 01:57:50;;;;;;;6.53;3.87;;;;;;;;;;5095027;28;20457;-60
2023/08/01 02:00:16;;;;;;;4.60;3.97;;;;;;;;;;5094843;28;20447;-60
2023/08/01 02:02:42;;;;;;;3.80;3.53;;;;;;;;;;5094652;28;20413;-60
2023/08/01 02:05:08;;;;;;;4.20;3.97;;;;;;;;;;5094582;28;20781;-60
2023/08/01 02:07:34;;;;;;;4.60;4.17;;;;;;;;;;5094587;28;20488;-60
2023/08/01 02:10:00;;;;;;;4.83;3.60;;;;;;;;;;5093339;28;20417;-60
2023/08/01 02:12:26;;;;;;;4.63;4.23;;;;;;;;;;5094338;28;20475;-60
2023/08/01 02:14:55;;;;;;;3.40;3.10;;;;;;;;;;5094669;28;20901;-60
2023/08/01 02:17:21;;;;;;;4.03;3.67;;;;;;;;;;5094050;28;20463;-60
2023/08/01 02:19:47;;;;;;;5.40;3.40;;;;;;;;;;5094680;28;20420;-60
2023/08/01 02:22:12;;;;;;;3.77;3.50;;;;;;;;;;5093989;28;20922;-60
2023/08/01 02:24:38;;;;;;;4.33;3.60;;;;;;;;;;5094196;28;20457;-60
2023/08/01 02:27:05;;;;;;;4.83;3.70;;;;;;;;;;5094012;28;20884;-60
2023/08/01 02:29:33;;;;;;;4.43;4.03;;;;;;;;;;5094003;28;20842;-60
2023/08/01 02:32:02;;;;;;;3.87;3.67;;;;;;;;;;5093931;28;20420;-60
2023/08/01 02:34:28;;;;;;;3.20;3.00;;;;;;;;;;5093892;28;20448;-60
2023/08/01 02:36:54;;;;;;;3.67;3.43;;;;;;;;;;5094143;28;20421;-59
2023/08/01 02:39:20;;;;;;;3.93;3.63;;;;;;;;;;5093877;28;20445;-60
2023/08/01 02:41:48;;;;;;;4.30;3.23;;;;;;;;;;5093501;28;20423;-60
2023/08/01 02:44:14;;;;;;;6.83;3.83;;;;;;;;;;5092506;28;20436;-60
2023/08/01 02:46:40;;;;;;;4.00;3.70;;;;;;;;;;5093305;28;20798;-60
2023/08/01 02:49:09;;;;;;;5.77;4.20;;;;;;;;;;5093466;28;20431;-60
2023/08/01 02:51:35;;;;;;;3.37;3.17;;;;;;;;;;5093554;28;20913;-60
2023/08/01 02:54:01;;;;;;;5.00;3.20;;;;;;;;;;5093354;28;20463;-60
2023/08/01 02:56:27;;;;;;;3.37;3.23;;;;;;;;;;5093630;28;20840;-60
2023/08/01 02:58:55;;;;;;;4.80;3.80;;;;;;;;;;5093660;28;20434;-60
2023/08/01 03:01:21;;;;;;;4.33;3.70;;;;;;;;;;5092005;28;20535;-60
2023/08/01 03:03:47;;;;;;;4.83;3.13;;;;;;;;;;5093607;28;20412;-60
2023/08/01 03:06:15;;;;;;;7.97;3.57;;;;;;;;;;5093297;28;20420;-60
2023/08/01 03:08:42;;;;;;;4.00;3.63;;;;;;;;;;5093308;28;20428;-60
2023/08/01 03:11:08;;;;;;;7.10;3.13;;;;;;;;;;5093487;28;20429;-60
2023/08/01 03:13:33;;;;;;;4.47;3.63;;;;;;;;;;5092806;28;20483;-60
2023/08/01 03:15:59;;;;;;;4.30;3.90;;;;;;;;;;5093310;28;20880;-60
2023/08/01 03:18:25;;;;;;;3.97;3.67;;;;;;;;;;5093259;28;20419;-60
2023/08/01 03:20:54;;;;;;;5.60;3.77;;;;;;;;;;5091874;28;20450;-60
2023/08/01 03:23:20;;;;;;;4.00;3.70;;;;;;;;;;5093237;28;20411;-60
2023/08/01 03:25:46;;;;;;;5.90;3.67;;;;;;;;;;5093186;28;20429;-60
2023/08/01 03:28:14;;;;;;;4.53;3.60;;;;;;;;;;5093340;28;20485;-60
2023/08/01 03:30:40;;;;;;;3.73;3.43;;;;;;;;;;5092881;28;21094;-60
2023/08/01 03:33:06;;;;;;;6.10;3.67;;;;;;;;;;5093060;28;20478;-60
2023/08/01 03:35:32;;;;;;;8.90;4.00;;;;;;;;;;5092577;28;20409;-60
2023/08/01 03:37:58;;;;;;;4.17;3.73;;;;;;;;;;5092991;28;20953;-60
2023/08/01 03:40:26;;;;;;;5.60;3.80;;;;;;;;;;5092693;28;20428;-60
2023/08/01 03:42:55;;;;;;;4.00;3.30;;;;;;;;;;5092768;28;20420;-60
2023/08/01 03:45:21;;;;;;;6.50;4.33;;;;;;;;;;5092759;28;20423;-60
2023/08/01 03:47:47;;;;;;;3.90;3.60;;;;;;;;;;5092786;28;20755;-60
2023/08/01 03:50:13;;;;;;;5.47;3.80;;;;;;;;;;5092664;28;20418;-60
2023/08/01 03:52:40;;;;;;;3.73;3.40;;;;;;;;;;5092409;28;20468;-60
2023/08/01 03:55:06;;;;;;;10.50;3.90;;;;;;;;;;5092240;28;20767;-60
2023/08/01 03:57:34;;;;;;;4.07;3.73;;;;;;;;;;5091166;28;20427;-60
2023/08/01 04:00:03;;;;;;;9.23;4.00;;;;;;;;;;5092497;28;20422;-60
2023/08/01 04:02:29;;;;;;;4.57;3.50;;;;;;;;;;5092280;28;20449;-60
2023/08/01 04:05:00;;;;;;;4.87;3.67;;;;;;;;;;5092252;28;20420;-60
2023/08/01 04:07:26;;;;;;;4.67;4.20;;;;;;;;;;5092579;28;20463;-60
2023/08/01 04:09:54;;;;;;;10.27;3.90;;;;;;;;;;5092190;28;20421;-60
2023/08/01 04:12:20;;;;;;;4.13;3.67;;;;;;;;;;5091006;28;21067;-59
2023/08/01 04:14:48;;;;;;;4.50;4.00;;;;;;;;;;5092262;28;20512;-60
2023/08/01 04:17:17;;;;;;;7.20;4.00;;;;;;;;;;5092158;28;20517;-60
2023/08/01 04:19:43;;;;;;;9.40;5.40;;;;;;;;;;5092262;28;20483;-60
2023/08/01 04:22:09;;;;;;;4.77;3.93;;;;;;;;;;5092092;28;20414;-60
2023/08/01 04:24:35;;;;;;;4.93;4.20;;;;;;;;;;5091798;28;20917;-60
2023/08/01 04:27:01;;;;;;;4.67;4.27;;;;;;;;;;5091048;28;20401;-60
2023/08/01 04:29:27;;;;;;;5.57;5.10;;;;;;;;;;5092357;28;20902;-60
2023/08/01 04:31:53;;;;;;;6.33;4.90;;;;;;;;;;5089878;28;20781;-60
2023/08/01 04:34:19;;;;;;;10.00;5.23;;;;;;;;;;5091485;28;20520;-59
2023/08/01 04:36:44;;;;;;;10.73;5.43;;;;;;;;;;5091859;28;20427;-60
2023/08/01 04:39:10;;;;;;;10.00;5.17;;;;;;;;;;5092190;28;20923;-60
2023/08/01 04:41:36;;;;;;;8.80;5.13;;;;;;;;;;5092079;28;20409;-60
2023/08/01 04:44:02;;;;;;;5.80;5.07;;;;;;;;;;5091693;28;20472;-60
2023/08/01 04:46:28;;;;;;;12.20;5.20;;;;;;;;;;5091780;28;20422;-60
2023/08/01 04:48:54;;;;;;;8.70;4.50;;;;;;;;;;5091971;28;20413;-60
2023/08/01 04:51:20;;;;;;;5.53;4.70;;;;;;;;;;5092004;28;20414;-60
2023/08/01 04:53:46;;;;;;;11.83;5.13;;;;;;;;;;5092079;28;20600;-60
2023/08/01 04:56:15;;;;;;;14.47;5.47;;;;;;;;;;5090267;28;20406;-60
2023/08/01 04:58:43;;;;;;;6.57;4.73;;;;;;;;;;5091638;28;20446;-60
2023/08/01 05:01:09;;;;;;;10.13;5.40;;;;;;;;;;5092036;28;20406;-60
2023/08/01 05:03:35;;;;;;;5.60;4.73;;;;;;;;;;5091837;28;20446;-60
2023/08/01 05:06:03;;;;;;;10.87;5.40;;;;;;;;;;5091951;28;20452;-60
2023/08/01 05:08:29;;;;;;;6.60;4.60;;;;;;;;;;5091808;28;20427;-60
2023/08/01 05:10:55;;;;;;;8.43;5.33;;;;;;;;;;5091807;28;20412;-60
2023/08/01 05:13:21;;;;;;;11.43;5.80;;;;;;;;;;5090721;28;20499;-60
2023/08/01 05:15:47;;;;;;;9.63;3.83;;;;;;;;;;5092190;28;20524;-60
2023/08/01 05:18:14;;;;;;;6.07;5.47;;;;;;;;;;5091951;28;20508;-60
2023/08/01 05:20:40;;;;;;;5.43;4.93;;;;;;;;;;5092011;28;20430;-60
2023/08/01 05:23:06;;;;;;;5.27;4.87;;;;;;;;;;5091943;28;20882;-61
2023/08/01 05:25:32;;;;;;;7.10;4.73;;;;;;;;;;5091894;28;20422;-60
2023/08/01 05:27:58;;;;;;;6.10;4.73;;;;;;;;;;5091990;28;20398;-60
2023/08/01 05:30:25;;;;;;;5.87;4.37;;;;;;;;;;5091828;28;20414;-60
2023/08/01 05:32:51;;;;;;;7.13;4.77;;;;;;;;;;5091786;28;20458;-60
2023/08/01 05:35:17;;;;;;;5.93;4.73;;;;;;;;;;5089903;28;20852;-60
2023/08/01 05:37:44;;;;;;;5.63;5.00;;;;;;;;;;5093628;28;20439;-59
2023/08/01 05:40:12;;;;;;;5.53;4.90;;;;;;;;;;5094107;28;20406;-59
2023/08/01 05:42:38;;;;;;;10.87;5.60;;;;;;;;;;5094217;28;20816;-60
2023/08/01 05:45:05;;;;;;;9.30;5.33;;;;;;;;;;5094509;28;20421;-60
2023/08/01 05:47:31;;;;;;;7.70;4.80;;;;;;;;;;5094887;28;20910;-59
2023/08/01 05:49:57;;;;;;;5.53;4.97;;;;;;;;;;5093710;28;20479;-59
2023/08/01 05:52:24;;;;;;;6.33;5.67;;;;;;;;;;5094851;28;20471;-59
2023/08/01 05:54:50;;;;;;;8.20;5.60;;;;;;;;;;5094799;28;20923;-59
2023/08/01 05:57:16;;;;;;;9.60;5.60;;;;;;;;;;5094645;28;20947;-60
2023/08/01 05:59:42;;;;;;;5.60;5.10;;;;;;;;;;5094588;28;20427;-59
2023/08/01 06:02:08;;;;;;;5.50;5.00;;;;;;;;;;5094463;28;20918;-59
2023/08/01 06:04:34;;;;;;;5.53;5.07;;;;;;;;;;5093354;28;20481;-59
2023/08/01 06:06:59;;;;;;;5.53;5.00;;;;;;;;;;5094621;28;20770;-60
2023/08/01 06:09:26;;;;;;;6.00;5.10;;;;;;;;;;5094465;28;20499;-60
2023/08/01 06:11:52;;;;;;;5.33;4.83;;;;;;;;;;5093052;28;20433;-60
2023/08/01 06:14:18;;;;;;;5.00;4.70;;;;;;;;;;5094318;28;20471;-60
2023/08/01 06:16:44;;;;;;;5.60;5.10;;;;;;;;;;5094433;28;20505;-59
2023/08/01 06:19:10;;;;;;;7.33;5.37;;;;;;;;;;5094475;28;20415;-60
2023/08/01 06:21:36;;;;;;;8.17;5.30;;;;;;;;;;5094558;28;20436;-59
2023/08/01 06:24:04;;;;;;;5.63;5.03;;;;;;;;;;5094636;28;20506;-60
2023/08/01 06:26:30;;;;;;;6.93;5.23;;;;;;;;;;5094136;28;20442;-60
2023/08/01 06:28:56;;;;;;;10.20;6.60;;;;;;;;;;5094692;28;20437;-59
2023/08/01 06:31:22;;;;;;;9.10;5.50;;;;;;;;;;5093912;28;20568;-59
2023/08/01 06:33:49;;;;;;;6.50;5.80;;;;;;;;;;5094197;28;21070;-59
2023/08/01 06:36:17;;;;;;;5.90;5.37;;;;;;;;;;5094321;28;20496;-59
2023/08/01 06:38:43;;;;;;;6.87;6.00;;;;;;;;;;5094250;28;20417;-59
2023/08/01 06:41:09;;;;;;;8.30;5.33;;;;;;;;;;5094238;28;20502;-60
2023/08/01 06:43:37;;;;;;;5.80;5.17;;;;;;;;;;5094109;28;20407;-60
2023/08/01 06:46:05;;;;;;;8.63;4.93;;;;;;;;;;5094175;28;20450;-59
2023/08/01 06:48:34;;;;;;;9.00;5.10;;;;;;;;;;5093550;28;20476;-60
2023/08/01 06:51:01;;;;;;;9.03;4.70;;;;;;;;;;5093553;28;20417;-60
2023/08/01 06:53:27;;;;;;;7.73;5.53;;;;;;;;;;5093439;28;20520;-60
2023/08/01 06:55:53;;;;;;;5.27;4.97;;;;;;;;;;5093773;28;20425;-59
2023/08/01 06:58:19;;;;;;;7.50;5.40;;;;;;;;;;5093645;28;20985;-59
2023/08/01 07:00:45;;;;;;;6.27;5.00;;;;;;;;;;5093972;28;20434;-59
2023/08/01 07:03:11;;;;;;;7.03;5.27;;;;;;;;;;5093841;28;20419;-59
2023/08/01 07:05:41;;;;;;;5.80;5.20;;;;;;;;;;5093655;28;20522;-59
2023/08/01 07:08:07;;;;;;;6.80;5.00;;;;;;;;;;5094193;28;20439;-60
2023/08/01 07:10:36;;;;;;;5.50;4.80;;;;;;;;;;5093817;28;20416;-60
2023/08/01 07:13:04;;;;;;;4.80;4.30;;;;;;;;;;5093650;28;20476;-60
2023/08/01 07:15:30;;;;;;;4.60;4.30;;;;;;;;;;5093128;28;20415;-60
2023/08/01 07:17:56;;;;;;;4.57;4.27;;;;;;;;;;5093625;28;20811;-60
2023/08/01 07:20:23;;;;;;;5.13;4.80;;;;;;;;;;5093440;28;20403;-59
2023/08/01 07:22:51;;;;;;;12.73;5.60;;;;;;;;;;5093420;28;20952;-59
2023/08/01 07:25:19;;;;;;;14.10;5.93;;;;;;;;;;5093689;28;20427;-59
2023/08/01 07:27:45;;;;;;;7.23;5.40;;;;;;;;;;5093480;28;20434;-60
2023/08/01 07:30:11;;;;;;;13.70;7.10;;;;;;;;;;5093304;28;20790;-60
2023/08/01 07:32:37;;;;;;;10.73;6.70;;;;;;;;;;5093057;28;20981;-60
2023/08/01 07:35:06;;;;;;;18.13;7.30;;;;;;;;;;5093311;28;20421;-60
2023/08/01 07:37:37;;;;;;;6.70;6.20;;;;;;;;;;5093288;28;20440;-60
2023/08/01 07:40:05;;;;;;;10.63;6.63;;;;;;;;;;5093191;28;20922;-60
2023/08/01 07:42:31;;;;;;;6.67;5.67;;;;;;;;;;5093036;28;20489;-60
2023/08/01 07:44:57;;;;;;;11.03;6.03;;;;;;;;;;5091706;28;20908;-60
2023/08/01 07:47:25;;;;;;;6.90;6.10;;;;;;;;;;5092912;28;20434;-60
2023/08/01 07:49:54;;;;;;;11.70;6.20;;;;;;;;;;5093069;28;20960;-60
2023/08/01 07:52:20;;;;;;;9.43;6.50;;;;;;;;;;5093034;28;20417;-61
2023/08/01 07:54:46;;;;;;;10.17;6.43;;;;;;;;;;5092848;28;20421;-61
2023/08/01 07:57:14;;;;;;;12.17;5.80;;;;;;;;;;5092964;28;20432;-60
2023/08/01 07:59:40;;;;;;;9.07;6.23;;;;;;;;;;5092372;28;20411;-61
2023/08/01 08:02:06;;;;;;;8.23;6.27;;;;;;;;;;5092626;28;20420;-61
2023/08/01 08:04:32;;;;;;;9.63;6.20;;;;;;;;;;5092862;28;20501;-60
2023/08/01 08:06:59;;;;;;;8.27;6.40;;;;;;;;;;5092737;28;20417;-60
2023/08/01 08:09:28;;;;;;;9.43;5.87;;;;;;;;;;5091994;28;20776;-61
2023/08/01 08:11:57;;;;;;;8.80;6.60;;;;;;;;;;5092622;28;20450;-60
2023/08/01 08:14:25;;;;;;;10.53;6.80;;;;;;;;;;5092661;28;20547;-60
2023/08/01 08:16:54;;;;;;;7.40;6.13;;;;;;;;;;5092466;28;20412;-60
2023/08/01 08:19:20;;;;;;;7.40;6.23;;;;;;;;;;5092718;28;20433;-60
2023/08/01 08:21:45;;;;;;;5.50;5.00;;;;;;;;;;5092419;28;20833;-60
2023/08/01 08:24:14;;;;;;;7.10;5.77;;;;;;;;;;5092410;28;20419;-60
2023/08/01 08:26:40;;;;;;;6.53;5.10;;;;;;;;;;5092497;28;20426;-60
2023/08/01 08:29:08;;;;;;;11.37;6.17;;;;;;;;;;5091301;28;20916;-61
2023/08/01 08:31:34;;;;;;;5.93;5.50;;;;;;;;;;5092731;28;20467;-61
2023/08/01 08:34:00;;;;;;;6.13;5.60;;;;;;;;;;5092412;28;20551;-60
2023/08/01 08:36:26;;;;;;;4.90;4.60;;;;;;;;;;5092354;28;20513;-61
2023/08/01 08:38:52;;;;;;;11.73;4.60;;;;;;;;;;5092487;28;20425;-61
2023/08/01 08:41:22;;;;;;;7.93;5.63;;;;;;;;;;5092380;28;20419;-61
2023/08/01 08:43:48;;;;;;;4.40;4.13;;;;;;;;;;5092239;28;20490;-61
2023/08/01 08:46:16;;;;;;;4.97;4.57;;;;;;;;;;5092287;28;20411;-61
2023/08/01 08:48:46;;;;;;;8.60;4.87;;;;;;;;;;5092708;28;20525;-61
2023/08/01 08:51:12;;;;;;;7.00;6.43;;;;;;;;;;5092461;28;20414;-61
2023/08/01 08:53:44;;;;;;;4.63;4.33;;;;;;;;;;5092043;28;20571;-61
2023/08/01 08:56:10;;;;;;;14.60;9.07;;;;;;;;;;5092562;28;20390;-62
2023/08/01 08:58:38;;;;;;;4.87;4.43;;;;;;;;;;5092260;28;20440;-62
2023/08/01 09:01:06;;;;;;;4.83;4.53;;;;;;;;;;5092264;28;20494;-61
2023/08/01 09:03:32;;;;;;;5.10;4.57;;;;;;;;;;5092209;28;20497;-61
2023/08/01 09:06:03;;;;;;;7.70;4.30;;;;;;;;;;5091799;28;20507;-61
2023/08/01 09:08:30;;;;;;;4.23;4.03;;;;;;;;;;5092319;28;20487;-62
2023/08/01 09:10:56;;;;;;;4.10;3.90;;;;;;;;;;5091945;28;20436;-62
2023/08/01 09:13:22;;;;;;;4.53;4.13;;;;;;;;;;5095729;28;20952;-61
2023/08/01 09:15:50;;;;;;;5.30;4.80;;;;;;;;;;5096101;28;20405;-61
2023/08/01 09:18:16;;;;;;;4.60;4.20;;;;;;;;;;5096128;28;20509;-62
2023/08/01 09:20:48;;;;;;;4.27;3.90;;;;;;;;;;5095576;28;20454;-61
2023/08/01 09:23:14;;;;;;;4.57;4.17;;;;;;;;;;5095964;28;20443;-62
2023/08/01 09:25:41;;;;;;;4.43;3.57;;;;;;;;;;5095812;28;20472;-62
2023/08/01 09:28:17;;;;;;;4.30;3.77;;;;;;;;;;5095817;28;20968;-61
2023/08/01 09:30:48;;;;;;;6.77;4.23;;;;;;;;;;5095910;28;20406;-61
2023/08/01 09:33:15;;;;;;;4.30;3.73;;;;;;;;;;5095468;28;20526;-61
2023/08/01 09:35:41;;;;;;;5.50;4.07;;;;;;;;;;5094463;28;20479;-61
2023/08/01 09:38:07;;;;;;;3.40;3.27;;;;;;;;;;5095457;28;20459;-61
2023/08/01 09:40:39;;;;;;;3.57;3.37;;;;;;;;;;5095696;28;20386;-61
2023/08/01 09:43:05;;;;;;;5.03;4.23;;;;;;;;;;5095445;28;20492;-61
2023/08/01 09:45:31;;;;;;;3.63;3.43;;;;;;;;;;5095531;28;20423;-62
2023/08/01 09:47:58;;;;;;;5.67;3.30;;;;;;;;;;5095300;28;20537;-61
2023/08/01 09:50:25;;;;;;;4.17;3.77;;;;;;;;;;5095329;28;20461;-61
2023/08/01 09:52:54;;;;;;;4.07;3.70;;;;;;;;;;5095379;28;20455;-61
2023/08/01 09:55:32;;;;;;;3.87;3.57;;;;;;;;;;5095201;28;20458;-62
2023/08/01 09:57:59;;;;;;;3.50;3.30;;;;;;;;;;5095265;28;20416;-62
2023/08/01 10:00:28;;;;;;;3.20;2.93;;;;;;;;;;5095225;28;20441;-61
2023/08/01 10:02:56;;;;;;;3.87;3.50;;;;;;;;;;5094823;28;20475;-57
2023/08/01 10:05:23;;;;;;;3.97;3.30;;;;;;;;;;5095269;28;20483;-56
2023/08/01 10:07:51;;;;;;;3.07;2.80;;;;;;;;;;5095356;28;20788;-56
2023/08/01 10:10:21;;;;;;;3.40;3.23;;;;;;;;;;5094789;28;20465;-57
2023/08/01 10:12:50;;;;;;;2.80;2.70;;;;;;;;;;5095017;28;20837;-54
2023/08/01 10:15:16;;;;;;;3.50;2.77;;;;;;;;;;5095040;28;20507;-57
2023/08/01 10:17:42;;;;;;;2.97;2.77;;;;;;;;;;5094886;28;20429;-56
2023/08/01 10:20:09;;;;;;;3.27;3.07;;;;;;;;;;5094723;28;20804;-56
2023/08/01 10:22:35;;;;;;;3.40;3.10;;;;;;;;;;5094319;28;20495;-56
2023/08/01 10:25:01;;;;;;;2.93;2.83;;;;;;;;;;5094717;28;20780;-57
2023/08/01 10:27:27;;;;;;;2.50;2.40;;;;;;;;;;5094517;28;20514;-56
2023/08/01 10:30:00;;;;;;;3.67;3.13;;;;;;;;;;5094522;28;20842;-56
2023/08/01 10:32:36;;;;;;;2.80;2.60;;;;;;;;;;5093398;28;20478;-58
2023/08/01 10:35:02;;;;;;;4.93;3.43;;;;;;;;;;5094447;28;20518;-57
2023/08/01 10:37:40;;;;;;;2.60;2.57;;;;;;;;;;5094780;28;20768;-56
2023/08/01 10:40:06;;;;;;;3.00;2.80;;;;;;;;;;5094354;28;20442;-56
2023/08/01 10:42:39;;;;;;;2.70;2.60;;;;;;;;;;5094448;28;20418;-56
2023/08/01 10:45:05;;;;;;;3.97;2.47;;;;;;;;;;5094549;28;20545;-56
2023/08/01 10:47:31;;;;;;;3.20;2.13;;;;;;;;;;5094342;28;20410;-57
2023/08/01 10:49:59;;;;;;;2.30;2.20;;;;;;;;;;5094568;28;20442;-57
2023/08/01 10:52:28;;;;;;;2.70;2.43;;;;;;;;;;5094939;28;20419;-57
2023/08/01 10:55:00;;;;;;;3.90;2.23;;;;;;;;;;5092583;28;20807;-57
2023/08/01 10:57:30;;;;;;;2.33;2.23;;;;;;;;;;5094322;28;20386;-57
2023/08/01 10:59:57;;;;;;;2.43;2.27;;;;;;;;;;5094004;28;20435;-56
2023/08/01 11:02:26;;;;;;;4.17;3.40;;;;;;;;;;5094131;28;20408;-57
2023/08/01 11:04:59;;;;;;;3.50;2.67;;;;;;;;;;5094087;28;20481;-56
2023/08/01 11:07:25;;;;;;;6.30;2.27;;;;;;;;;;5093920;28;20456;-56
2023/08/01 11:10:03;;;;;;;5.57;3.00;;;;;;;;;;5093622;28;20425;-57
2023/08/01 11:12:29;;;;;;;2.97;2.07;;;;;;;;;;5093513;28;20550;-57
2023/08/01 11:14:59;;;;;;;2.30;2.20;;;;;;;;;;5093468;28;20431;-57
2023/08/01 11:17:25;;;;;;;1.57;1.57;;;;;;;;;;5093457;28;20801;-56
2023/08/01 11:19:51;;;;;;;1.60;1.60;;;;;;;;;;5093725;28;20429;-57
2023/08/01 11:22:17;;;;;;;1.90;1.80;;;;;;;;;;5093482;28;20745;-56
2023/08/01 11:24:50;;;;;;;4.90;2.73;;;;;;;;;;5093573;28;20494;-57
2023/08/01 11:27:16;;;;;;;1.90;1.90;;;;;;;;;;5093402;28;20423;-57
2023/08/01 11:29:42;;;;;;;2.27;2.20;;;;;;;;;;5093506;28;20485;-57
2023/08/01 11:32:12;;;;;;;2.70;2.50;;;;;;;;;;5093485;28;20481;-56
2023/08/01 11:34:43;;;;;;;2.33;2.23;;;;;;;;;;5091044;28;20475;-55
2023/08/01 11:37:12;;;;;;;2.40;2.20;;;;;;;;;;5093410;28;20397;-55
2023/08/01 11:39:40;;;;;;;2.30;2.20;;;;;;;;;;5093154;28;20401;-57
2023/08/01 11:42:06;;;;;;;2.20;2.20;;;;;;;;;;5093239;28;20462;-58
2023/08/01 11:44:32;;;;;;;4.30;2.10;;;;;;;;;;5093479;28;20421;-57
2023/08/01 11:46:58;;;;;;;3.03;2.10;;;;;;;;;;5093031;28;20919;-58
2023/08/01 11:49:26;;;;;;;1.50;1.50;;;;;;;;;;5093060;28;20411;-57
2023/08/01 11:51:52;;;;;;;1.80;1.80;;;;;;;;;;5093030;28;20916;-57
2023/08/01 11:54:18;;;;;;;2.33;2.33;;;;;;;;;;5092911;28;20462;-57
2023/08/01 11:56:48;;;;;;;2.23;2.07;;;;;;;;;;5092590;28;20800;-58
2023/08/01 11:59:15;;;;;;;1.93;1.57;;;;;;;;;;5092979;28;20430;-57
2023/08/01 12:01:42;;;;;;;1.70;1.60;;;;;;;;;;5092675;28;20516;-55
2023/08/01 12:04:10;;;;;;;1.40;1.30;;;;;;;;;;5093076;28;20401;-57
2023/08/01 12:06:38;;;;;;;1.33;1.33;;;;;;;;;;5092880;28;20495;-57
2023/08/01 12:09:13;;;;;;;1.30;1.30;;;;;;;;;;5092927;28;20558;-57
2023/08/01 12:11:40;;;;;;;2.20;1.20;;;;;;;;;;5092705;28;20459;-56
2023/08/01 12:14:15;;;;;;;1.13;1.13;;;;;;;;;;5092599;28;20848;-57
2023/08/01 12:16:44;;;;;;;3.17;2.20;;;;;;;;;;5092833;28;20430;-57
2023/08/01 12:19:10;;;;;;;6.73;1.60;;;;;;;;;;5092808;28;20401;-57
2023/08/01 12:21:39;;;;;;;1.10;1.10;;;;;;;;;;5092608;28;20796;-57
2023/08/01 12:24:05;;;;;;;2.60;1.73;;;;;;;;;;5092755;28;20485;-57
2023/08/01 12:26:31;;;;;;;1.50;1.40;;;;;;;;;;5092485;28;20413;-58
2023/08/01 12:28:57;;;;;;;1.80;1.63;;;;;;;;;;5092717;28;20412;-57
2023/08/01 12:31:24;;;;;;;1.47;1.47;;;;;;;;;;5092728;28;20433;-59
2023/08/01 12:33:50;;;;;;;2.40;2.30;;;;;;;;;;5092217;28;20902;-57
2023/08/01 12:36:16;;;;;;;1.80;1.80;;;;;;;;;;5092436;28;20944;-57
2023/08/01 12:38:42;;;;;;;1.70;1.60;;;;;;;;;;5092286;28;20398;-57
2023/08/01 12:41:08;;;;;;;1.40;1.40;;;;;;;;;;5092408;28;20429;-57
2023/08/01 12:43:34;;;;;;;2.10;2.00;;;;;;;;;;5092331;28;20413;-57
2023/08/01 12:46:00;;;;;;;1.40;1.40;;;;;;;;;;5094717;28;20448;-56
2023/08/01 12:48:26;;;;;;;1.40;1.40;;;;;;;;;;5095126;28;20433;-57
2023/08/01 12:50:53;;;;;;;3.43;1.43;;;;;;;;;;5096370;28;20527;-57
2023/08/01 12:53:19;;;;;;;1.87;1.77;;;;;;;;;;5096459;28;20457;-58
2023/08/01 12:55:48;;;;;;;1.20;1.20;;;;;;;;;;5096240;28;20423;-57
2023/08/01 12:58:14;;;;;;;1.57;1.57;;;;;;;;;;5096352;28;20411;-57
2023/08/01 13:00:41;;;;;;;1.03;1.00;;;;;;;;;;5096297;28;20407;-57
2023/08/01 13:03:07;;;;;;;1.10;1.10;;;;;;;;;;5096301;28;20779;-57
2023/08/01 13:05:41;;;;;;;1.13;0.90;;;;;;;;;;5096256;28;20435;-57
2023/08/01 13:08:10;;;;;;;1.17;1.07;;;;;;;;;;5096191;28;20422;-57
2023/08/01 13:10:39;;;;;;;0.90;0.90;;;;;;;;;;5096044;28;20419;-56
2023/08/01 13:13:05;;;;;;;1.10;1.10;;;;;;;;;;5095573;28;20514;-57
2023/08/01 13:15:31;;;;;;;1.00;1.00;;;;;;;;;;5096300;28;20173;-57
2023/08/01 13:17:57;;;;;;;1.23;1.23;;;;;;;;;;5095994;28;20408;-58
2023/08/01 13:20:23;;;;;;;1.10;1.10;;;;;;;;;;5095982;28;20773;-58
2023/08/01 13:22:49;;;;;;;0.80;0.80;;;;;;;;;;5096015;28;20435;-57
2023/08/01 13:25:16;;;;;;;1.60;1.50;;;;;;;;;;5096164;28;20419;-59
2023/08/01 13:27:42;;;;;;;0.83;0.83;;;;;;;;;;5095885;28;20509;-59
2023/08/01 13:30:08;;;;;;;1.00;1.00;;;;;;;;;;5096174;28;20456;-57
2023/08/01 13:32:35;;;;;;;0.83;0.83;;;;;;;;;;5095737;28;20415;-57
2023/08/01 13:35:01;;;;;;;2.13;0.80;;;;;;;;;;5096803;28;20406;-57
2023/08/01 13:37:29;;;;;;;1.17;1.03;;;;;;;;;;5095649;28;20901;-57
2023/08/01 13:39:55;;;;;;;0.90;0.90;;;;;;;;;;5095665;28;20488;-56
2023/08/01 13:42:23;;;;;;;0.70;0.70;;;;;;;;;;5095530;28;20877;-57
2023/08/01 13:44:49;;;;;;;2.80;1.00;;;;;;;;;;5095618;28;20876;-57
2023/08/01 13:47:15;;;;;;;0.87;0.80;;;;;;;;;;5095311;28;20440;-58
2023/08/01 13:49:43;;;;;;;0.80;0.80;;;;;;;;;;5095589;28;20413;-57
2023/08/01 13:52:09;;;;;;;1.07;0.80;;;;;;;;;;5095145;28;20411;-57
2023/08/01 13:54:35;;;;;;;0.80;0.80;;;;;;;;;;5095062;28;20563;-58
2023/08/01 13:57:01;;;;;;;1.00;1.00;;;;;;;;;;5094337;28;21079;-57
2023/08/01 13:59:27;;;;;;;0.87;0.87;;;;;;;;;;5095331;28;20403;-57
2023/08/01 14:01:53;;;;;;;0.80;0.80;;;;;;;;;;5095388;28;20429;-56
2023/08/01 14:04:19;;;;;;;0.73;0.73;;;;;;;;;;5095046;28;20416;-57
2023/08/01 14:06:45;;;;;;;6.10;0.70;;;;;;;;;;5095048;28;20432;-57
2023/08/01 14:09:12;;;;;;;0.80;0.80;;;;;;;;;;5094815;28;20412;-57
2023/08/01 14:11:38;;;;;;;1.33;0.63;;;;;;;;;;5094743;28;20442;-55
2023/08/01 14:14:04;;;;;;;1.03;1.03;;;;;;;;;;5093243;28;20468;-56
2023/08/01 14:16:30;;;;;;;1.00;1.00;;;;;;;;;;5094952;28;20391;-56
2023/08/01 14:18:57;;;;;;;1.00;1.00;;;;;;;;;;5094835;28;20410;-57
2023/08/01 14:21:23;;;;;;;1.13;1.13;;;;;;;;;;5094812;28;20461;-57
2023/08/01 14:23:49;;;;;;;1.83;0.63;;;;;;;;;;5094582;28;20411;-56
2023/08/01 14:26:15;;;;;;;1.57;1.30;;;;;;;;;;5094550;28;20412;-57
2023/08/01 14:28:41;;;;;;;4.30;1.20;;;;;;;;;;5094825;28;20425;-58
2023/08/01 14:31:07;;;;;;;1.30;1.20;;;;;;;;;;5094472;28;20406;-58
2023/08/01 14:33:33;;;;;;;1.27;1.27;;;;;;;;;;5094403;28;20621;-58
2023/08/01 14:36:02;;;;;;;1.67;1.47;;;;;;;;;;5094447;28;20421;-57
2023/08/01 14:38:28;;;;;;;1.03;1.03;;;;;;;;;;5094445;28;20437;-57
2023/08/01 14:40:53;;;;;;;0.90;0.90;;;;;;;;;;5094290;28;20408;-56